Time;durP1;ratioP1;P1;durP2;ratioP2;P2;SDS_P1;SDS_P2;PMS_P1;PMS_P2;Temp;Humidity;BMP_temperature;BMP_pressure;BME280_temperature;BME280_humidity;BME280_pressure;Samples;Min_cycle;Max_cycle;Signal;HPM_P1;HPM_P2
2022/11/16 00:00:49;;;;;;;;;;;;;;;-4.16;90.47;98880.25;5012424;28;19936;-84
2022/11/16 00:03:16;;;;;;;;;;;;;;;-4.21;90.44;98886.97;4993973;28;20388;-83
2022/11/16 00:05:43;;;;;;;;;;;;;;;-4.23;90.51;98878.38;5012133;28;19936;-83
2022/11/16 00:08:11;;;;;;;;;;;;;;;-4.21;90.39;98886.97;5012326;28;19929;-83
2022/11/16 00:10:39;;;;;;;;;;;;;;;-4.24;90.47;98880.22;5013579;28;20411;-83
2022/11/16 00:13:06;;;;;;;;;;;;;;;-4.25;90.54;98880.38;5026600;28;19944;-83
2022/11/16 00:15:32;;;;;;;;;;;;;;;-4.25;90.57;98881.19;5029169;28;19975;-83
2022/11/16 00:18:02;;;;;;;;;;;;;;;-4.26;90.44;98878.72;5012283;28;19929;-85
2022/11/16 00:20:29;;;;;;;;;;;;;;;-4.29;90.57;98882.47;5011834;28;19930;-83
2022/11/16 00:22:55;;;;;;;;;;;;;;;-4.28;90.56;98878.03;5011420;28;19952;-82
2022/11/16 00:25:22;;;;;;;;;;;;;;;-4.25;90.62;98880.38;5011555;28;19936;-84
2022/11/16 00:27:49;;;;;;;;;;;;;;;-4.24;90.54;98885.47;4993501;28;19936;-83
2022/11/16 00:30:16;;;;;;;;;;;;;;;-4.19;90.37;98885.03;5011062;28;19929;-84
2022/11/16 00:32:43;;;;;;;;;;;;;;;-4.14;90.21;98885.38;4993740;28;19960;-84
2022/11/16 00:35:10;;;;;;;;;;;;;;;-4.11;90.10;98886.91;5011166;28;19983;-82
2022/11/16 00:37:37;;;;;;;;;;;;;;;-4.10;90.11;98891.16;5011377;28;19929;-84
2022/11/16 00:40:04;;;;;;;;;;;;;;;-4.06;90.08;98890.72;4993765;28;19929;-84
2022/11/16 00:42:31;;;;;;;;;;;;;;;-4.02;90.26;98892.06;5025323;28;19929;-84
2022/11/16 00:44:58;;;;;;;;;;;;;;;-4.03;90.03;98893.03;5029680;28;19975;-84
2022/11/16 00:47:26;;;;;;;;;;;;;;;-4.03;90.35;98894.84;5029433;28;19939;-84
2022/11/16 00:49:53;;;;;;;;;;;;;;;-4.00;90.13;98894.53;5013496;28;19940;-83
2022/11/16 00:52:20;;;;;;;;;;;;;;;-3.98;89.90;98897.84;5030679;28;19936;-84
2022/11/16 00:54:47;;;;;;;;;;;;;;;-3.95;90.06;98894.91;5029669;28;19940;-83
2022/11/16 00:57:14;;;;;;;;;;;;;;;-3.93;89.88;98900.84;5029132;28;19929;-83
2022/11/16 00:59:41;;;;;;;;;;;;;;;-3.92;89.98;98903.34;5030322;28;20407;-84
2022/11/16 01:02:08;;;;;;;;;;;;;;;-3.90;90.15;98899.72;5043265;28;19933;-83
2022/11/16 01:04:38;;;;;;;;;;;;;;;-3.89;90.09;98890.84;5036372;28;19935;-84
2022/11/16 01:07:05;;;;;;;;;;;;;;;-3.90;89.75;98890.00;5036272;28;19972;-84
2022/11/16 01:09:32;;;;;;;;;;;;;;;-3.87;89.85;98900.25;5021344;28;20398;-84
2022/11/16 01:12:08;;;;;;;;;;;;;;;-3.88;89.65;98888.03;5057454;28;19929;-84
2022/11/16 01:14:37;;;;;;;;;;;;;;;-3.88;89.91;98889.84;5038741;28;20024;-84
2022/11/16 01:17:04;;;;;;;;;;;;;;;-3.86;89.72;98894.00;5036291;28;20426;-83
2022/11/16 01:19:31;;;;;;;;;;;;;;;-3.86;89.59;98887.88;5036225;28;20090;-83
2022/11/16 01:21:58;;;;;;;;;;;;;;;-3.87;89.61;98884.44;5053940;28;19986;-83
2022/11/16 01:24:25;;;;;;;;;;;;;;;-3.88;89.40;98887.22;5054178;28;19932;-83
2022/11/16 01:26:55;;;;;;;;;;;;;;;-3.86;89.53;98887.88;5020018;28;19928;-83
2022/11/16 01:29:26;;;;;;;;;;;;;;;-3.85;89.37;98892.16;5053429;28;19929;-82
2022/11/16 01:31:56;;;;;;;;;;;;;;;-3.82;89.47;98897.13;5021653;28;19940;-85
2022/11/16 01:34:23;;;;;;;;;;;;;;;-3.81;89.60;98893.53;5033588;28;19929;-84
2022/11/16 01:36:52;;;;;;;;;;;;;;;-3.84;89.29;98891.22;4984459;28;19929;-83
2022/11/16 01:39:19;;;;;;;;;;;;;;;-3.89;89.34;98886.41;5033452;28;19929;-84
2022/11/16 01:41:51;;;;;;;;;;;;;;;-3.90;89.13;98886.53;4999340;28;19936;-83
2022/11/16 01:44:30;;;;;;;;;;;;;;;-3.89;89.30;98896.13;5033247;28;19929;-84
2022/11/16 01:47:07;;;;;;;;;;;;;;;-3.96;89.20;98886.16;5015571;28;19929;-84
2022/11/16 01:49:35;;;;;;;;;;;;;;;-3.98;88.94;98896.03;4999304;28;19933;-83
2022/11/16 01:52:06;;;;;;;;;;;;;;;-3.96;89.19;98890.63;5015198;28;19979;-84
2022/11/16 01:54:35;;;;;;;;;;;;;;;-3.95;89.15;98887.84;4983153;28;19939;-83
2022/11/16 01:57:03;;;;;;;;;;;;;;;-3.92;89.27;98894.63;5019833;28;19929;-83
2022/11/16 01:59:37;;;;;;;;;;;;;;;-3.95;89.30;98893.13;5015136;28;19929;-83
2022/11/16 02:02:08;;;;;;;;;;;;;;;-3.93;89.32;98904.31;4995486;28;19929;-84
2022/11/16 02:04:35;;;;;;;;;;;;;;;-3.97;89.03;98899.53;4995308;28;19987;-84
2022/11/16 02:07:14;;;;;;;;;;;;;;;-4.03;89.24;98900.94;4995006;28;19936;-84
2022/11/16 02:09:52;;;;;;;;;;;;;;;-4.02;89.42;98909.72;4996245;28;19929;-83
2022/11/16 02:12:40;;;;;;;;;;;;;;;-4.03;89.37;98900.94;4995929;28;20411;-85
2022/11/16 02:15:15;;;;;;;;;;;;;;;-4.04;89.26;98901.94;4996603;28;19972;-83
2022/11/16 02:17:53;;;;;;;;;;;;;;;-4.05;89.33;98908.22;4997374;28;19995;-83
2022/11/16 02:20:30;;;;;;;;;;;;;;;-4.07;89.35;98904.88;4995287;28;19930;-85
2022/11/16 02:23:15;;;;;;;;;;;;;;;-4.07;89.18;98907.53;5012624;28;19936;-85
2022/11/16 02:25:55;;;;;;;;;;;;;;;-4.13;89.15;98910.75;4995201;28;19937;-84
2022/11/16 02:28:31;;;;;;;;;;;;;;;-4.15;89.24;98907.47;5012895;28;19929;-84
2022/11/16 02:30:59;;;;;;;;;;;;;;;-4.16;89.40;98911.06;5013102;28;19952;-82
2022/11/16 02:33:27;;;;;;;;;;;;;;;-4.13;89.23;98910.75;4994758;28;20586;-82
2022/11/16 02:35:55;;;;;;;;;;;;;;;-4.11;89.49;98914.06;5010151;28;19937;-83
2022/11/16 02:38:23;;;;;;;;;;;;;;;-4.07;89.47;98917.25;4975766;28;20487;-82
2022/11/16 02:40:51;;;;;;;;;;;;;;;-4.10;89.13;98918.38;4990314;28;19930;-83
2022/11/16 02:43:27;;;;;;;;;;;;;;;-4.18;89.06;98923.56;4992278;28;19930;-82
2022/11/16 02:45:54;;;;;;;;;;;;;;;-4.18;89.34;98924.41;4978811;28;19957;-82
2022/11/16 02:48:22;;;;;;;;;;;;;;;-4.17;89.24;98925.25;4959663;28;20023;-82
2022/11/16 02:50:51;;;;;;;;;;;;;;;-4.13;89.38;98929.22;4961956;28;19933;-81
2022/11/16 02:53:21;;;;;;;;;;;;;;;-4.12;89.10;98920.34;4994459;28;19936;-82
2022/11/16 02:55:49;;;;;;;;;;;;;;;-4.18;89.17;98927.06;4963232;28;20028;-82
2022/11/16 02:58:20;;;;;;;;;;;;;;;-4.17;88.98;98927.88;5012464;28;20021;-79
2022/11/16 03:00:54;;;;;;;;;;;;;;;-4.18;89.13;98929.69;4977954;28;19936;-81
2022/11/16 03:03:31;;;;;;;;;;;;;;;-4.11;89.15;98934.34;5013770;28;19929;-82
2022/11/16 03:06:00;;;;;;;;;;;;;;;-4.06;89.15;98927.63;5031914;28;19929;-81
2022/11/16 03:08:35;;;;;;;;;;;;;;;-4.04;89.16;98938.03;4998030;28;19935;-81
2022/11/16 03:13:54;;;;;;;;;;;;;;;-4.09;88.92;98941.13;4984410;28;20027;-82
2022/11/16 03:16:22;;;;;;;;;;;;;;;-4.11;88.87;98943.06;5013558;28;20368;-81
2022/11/16 03:18:49;;;;;;;;;;;;;;;-4.16;88.65;98953.25;4997545;28;19936;-81
2022/11/16 03:21:35;;;;;;;;;;;;;;;-4.19;88.69;98951.72;4997463;28;20325;-81
2022/11/16 03:24:02;;;;;;;;;;;;;;;-4.24;88.29;98961.09;4997698;28;19929;-82
2022/11/16 03:26:31;;;;;;;;;;;;;;;-4.28;88.18;98954.44;5029918;28;19929;-82
2022/11/16 03:28:57;;;;;;;;;;;;;;;-4.28;88.36;98964.97;5014123;28;19956;-81
2022/11/16 03:31:28;;;;;;;;;;;;;;;-4.31;88.27;98957.38;5013449;28;20348;-79
2022/11/16 03:33:57;;;;;;;;;;;;;;;-4.29;88.00;98958.06;4997466;28;19956;-82
2022/11/16 03:36:27;;;;;;;;;;;;;;;-4.30;88.22;98954.63;4997676;28;19933;-81
2022/11/16 03:38:55;;;;;;;;;;;;;;;-4.29;88.13;98958.06;4997140;28;19939;-80
2022/11/16 03:41:22;;;;;;;;;;;;;;;-4.29;88.19;98958.88;5013349;28;20463;-81
2022/11/16 03:43:52;;;;;;;;;;;;;;;-4.26;88.32;98955.94;4982053;28;19996;-82
2022/11/16 03:46:19;;;;;;;;;;;;;;;-4.22;88.33;98953.84;5013846;28;19929;-81
2022/11/16 03:48:46;;;;;;;;;;;;;;;-4.22;88.24;98951.22;5013911;28;19979;-82
2022/11/16 03:51:21;;;;;;;;;;;;;;;-4.25;88.29;98959.44;5013300;28;20306;-82
2022/11/16 03:53:48;;;;;;;;;;;;;;;-4.24;88.28;98967.16;5026700;28;19933;-82
2022/11/16 03:56:18;;;;;;;;;;;;;;;-4.25;88.35;98954.16;5006547;28;20027;-83
2022/11/16 03:58:46;;;;;;;;;;;;;;;-4.24;88.28;98958.44;5006977;28;19972;-81
2022/11/16 04:01:12;;;;;;;;;;;;;;;-4.20;88.35;98958.00;5013431;28;20459;-84
2022/11/16 04:03:40;;;;;;;;;;;;;;;-4.18;88.11;98960.47;5002097;28;19929;-85
2022/11/16 04:25:57;;;;;;;;;;;;;;;-4.42;87.72;98979.53;4917075;29;19935;-86
2022/11/16 04:28:26;;;;;;;;;;;;;;;-4.41;87.52;98974.09;4961970;29;19984;-86
2022/11/16 04:39:36;;;;;;;;;;;;;;;-4.45;87.58;98985.09;4937845;29;20359;-84
2022/11/16 04:42:16;;;;;;;;;;;;;;;-4.46;87.79;98991.31;4951390;29;19970;-83
2022/11/16 04:47:50;;;;;;;;;;;;;;;-4.45;87.70;98998.25;4952017;29;20028;-81
2022/11/16 04:50:20;;;;;;;;;;;;;;;-4.44;87.84;98997.28;4951259;28;19929;-85
2022/11/16 04:52:48;;;;;;;;;;;;;;;-4.45;87.69;98996.47;4662794;28;10000419;-83
2022/11/16 04:55:15;;;;;;;;;;;;;;;-4.46;87.46;98999.22;5022146;28;19990;-86
2022/11/16 04:57:44;;;;;;;;;;;;;;;-4.49;87.39;98999.53;4985986;28;19933;-87
2022/11/16 05:00:14;;;;;;;;;;;;;;;-4.50;87.61;98996.06;4979195;28;20314;-83
2022/11/16 05:02:42;;;;;;;;;;;;;;;-4.53;87.38;99003.44;4996713;28;20364;-86
2022/11/16 05:05:09;;;;;;;;;;;;;;;-4.54;87.45;99010.50;5011713;28;19952;-84
2022/11/16 05:07:40;;;;;;;;;;;;;;;-4.52;87.24;99013.81;5009863;28;19930;-85
2022/11/16 05:10:22;;;;;;;;;;;;;;;-4.55;87.20;99014.13;4993819;28;19929;-85
2022/11/16 05:12:50;;;;;;;;;;;;;;;-4.54;87.18;99023.69;5009972;28;19929;-84
2022/11/16 05:15:18;;;;;;;;;;;;;;;-4.56;87.29;99015.09;5007767;28;19930;-86
2022/11/16 05:17:46;;;;;;;;;;;;;;;-4.53;87.11;99013.97;4993977;28;20278;-87
2022/11/16 05:24:32;;;;;;;;;;;;;;;-4.60;86.99;99013.75;5014436;28;19951;-85
2022/11/16 05:25:53;;;;;;;;;;;;;;;-4.65;86.57;99023.88;5011912;28;19935;-84
2022/11/16 05:28:21;;;;;;;;;;;;;;;-4.69;86.56;99015.44;4998356;28;19936;-89
2022/11/16 05:30:49;;;;;;;;;;;;;;;-4.72;86.49;99021.00;4998243;28;19941;-87
2022/11/16 05:33:21;;;;;;;;;;;;;;;-4.74;86.47;99022.13;4997172;28;20029;-88
2022/11/16 05:35:49;;;;;;;;;;;;;;;-4.76;86.59;99024.06;4996621;28;19960;-86
2022/11/16 05:38:18;;;;;;;;;;;;;;;-4.72;86.60;99028.09;4993373;28;19933;-83
2022/11/16 05:40:50;;;;;;;;;;;;;;;-4.72;86.47;99026.28;5000607;28;20359;-83
2022/11/16 05:43:17;;;;;;;;;;;;;;;-4.69;86.48;99027.78;4994958;28;20373;-83
2022/11/16 05:45:53;;;;;;;;;;;;;;;-4.68;86.20;99037.34;5013386;28;20441;-80
2022/11/16 05:48:20;;;;;;;;;;;;;;;-4.69;85.89;99035.69;5017064;28;19944;-82
2022/11/16 05:50:47;;;;;;;;;;;;;;;-4.70;86.03;99045.41;5015927;28;20422;-83
2022/11/16 05:53:32;;;;;;;;;;;;;;;-4.67;85.72;99037.19;5015346;28;20271;-82
2022/11/16 05:55:59;;;;;;;;;;;;;;;-4.66;85.66;99040.66;5015529;28;19929;-83
2022/11/16 05:58:27;;;;;;;;;;;;;;;-4.68;85.32;99037.34;5032538;28;19933;-82
2022/11/16 06:00:58;;;;;;;;;;;;;;;-4.68;85.55;99053.16;5015205;28;19978;-83
2022/11/16 06:03:30;;;;;;;;;;;;;;;-4.63;85.66;99046.47;4998898;28;19975;-83
2022/11/16 06:05:58;;;;;;;;;;;;;;;-4.59;85.50;99045.19;5015091;28;19929;-81
2022/11/16 06:08:27;;;;;;;;;;;;;;;-4.58;85.05;99040.78;5032909;28;20303;-82
2022/11/16 06:11:00;;;;;;;;;;;;;;;-4.54;85.13;99041.28;5015247;28;19933;-83
2022/11/16 06:13:27;;;;;;;;;;;;;;;-4.52;84.76;99042.81;5032765;28;19987;-82
2022/11/16 06:15:56;;;;;;;;;;;;;;;-4.57;84.90;99043.25;5015403;28;19991;-84
2022/11/16 06:18:23;;;;;;;;;;;;;;;-4.57;84.86;99040.59;5014681;28;19983;-82
2022/11/16 06:20:50;;;;;;;;;;;;;;;-4.55;84.69;99040.47;5015116;28;19975;-84
2022/11/16 06:23:19;;;;;;;;;;;;;;;-4.54;84.52;99043.94;5014458;28;19929;-84
2022/11/16 06:25:46;;;;;;;;;;;;;;;-4.53;84.54;99050.84;5032558;28;20308;-83
2022/11/16 06:28:13;;;;;;;;;;;;;;;-4.52;84.07;99053.34;4998638;28;20024;-83
2022/11/16 06:30:40;;;;;;;;;;;;;;;-4.55;83.89;99058.91;5015427;28;19963;-83
2022/11/16 06:33:07;;;;;;;;;;;;;;;-4.54;83.84;99063.19;5014390;28;19937;-83
2022/11/16 06:35:35;;;;;;;;;;;;;;;-4.55;83.65;99063.34;5014187;28;19935;-83
2022/11/16 06:38:03;;;;;;;;;;;;;;;-4.53;83.61;99061.38;5014833;28;19944;-84
2022/11/16 06:40:31;;;;;;;;;;;;;;;-4.51;83.67;99054.97;5014539;28;20354;-83
2022/11/16 06:42:59;;;;;;;;;;;;;;;-4.51;83.49;99060.25;5014484;28;19929;-83
2022/11/16 06:45:27;;;;;;;;;;;;;;;-4.54;83.61;99055.28;5014403;28;19933;-83
2022/11/16 06:47:57;;;;;;;;;;;;;;;-4.46;83.40;99065.09;5014580;28;20371;-82
2022/11/16 06:50:25;;;;;;;;;;;;;;;-4.48;83.23;99059.13;5014009;28;20340;-83
2022/11/16 06:52:52;;;;;;;;;;;;;;;-4.38;83.29;99059.91;5032175;28;19982;-83
2022/11/16 06:55:30;;;;;;;;;;;;;;;-4.30;83.23;99060.03;5013787;28;19929;-83
2022/11/16 06:58:02;;;;;;;;;;;;;;;-4.22;83.23;99060.09;4991272;28;20351;-82
2022/11/16 07:00:30;;;;;;;;;;;;;;;-4.24;83.17;99061.22;5000079;28;20024;-91
2022/11/16 07:02:57;;;;;;;;;;;;;;;-4.23;82.95;99062.88;4992114;28;20441;-84
2022/11/16 07:05:24;;;;;;;;;;;;;;;-4.13;83.07;99063.63;5012776;28;19983;-84
2022/11/16 07:07:54;;;;;;;;;;;;;;;-4.09;82.93;99062.38;4983539;28;20392;-83
2022/11/16 07:10:35;;;;;;;;;;;;;;;-4.04;82.92;99072.47;5011475;28;19929;-84
2022/11/16 07:13:03;;;;;;;;;;;;;;;-3.98;82.56;99067.41;4994316;28;19992;-84
2022/11/16 07:15:31;;;;;;;;;;;;;;;-3.83;82.25;99069.53;4994463;28;19952;-88
2022/11/16 07:18:05;;;;;;;;;;;;;;;-3.72;82.13;99075.41;4994352;28;19977;-83
2022/11/16 07:20:37;;;;;;;;;;;;;;;-3.70;81.82;99069.97;5011536;28;19930;-86
2022/11/16 07:23:05;;;;;;;;;;;;;;;-3.50;81.67;99068.00;5013787;28;20308;-82
2022/11/16 07:25:39;;;;;;;;;;;;;;;-3.17;81.09;99068.25;4998242;28;19929;-83
2022/11/16 07:28:06;;;;;;;;;;;;;;;-2.88;80.17;99070.56;4664463;28;10000252;-83
2022/11/16 07:30:34;;;;;;;;;;;;;;;-2.76;79.66;99074.59;5026364;28;19929;-81
2022/11/16 07:33:07;;;;;;;;;;;;;;;-2.21;78.86;99068.84;4978322;28;19933;-83
2022/11/16 07:35:59;;;;;;;;;;;;;;;-2.01;78.20;99073.88;4999232;28;20497;-83
2022/11/16 07:38:26;;;;;;;;;;;;;;;-1.84;77.42;99075.56;5009849;28;19929;-83
2022/11/16 07:40:53;;;;;;;;;;;;;;;-1.53;76.34;99082.84;5009685;28;20005;-83
2022/11/16 07:43:21;;;;;;;;;;;;;;;-1.29;75.17;99067.94;5006726;28;19929;-83
2022/11/16 07:46:14;;;;;;;;;;;;;;;-0.68;73.77;99071.84;5020804;28;19996;-82
2022/11/16 07:49:03;;;;;;;;;;;;;;;-0.17;71.89;99074.09;5026832;28;19960;-84
2022/11/16 07:52:09;;;;;;;;;;;;;;;0.05;70.77;99078.63;4995047;28;19935;-83
2022/11/16 07:54:50;;;;;;;;;;;;;;;0.49;69.35;99069.19;5009924;28;19929;-83
2022/11/16 07:57:19;;;;;;;;;;;;;;;0.64;68.86;99065.56;5007001;28;20295;-82
2022/11/16 07:59:48;;;;;;;;;;;;;;;1.10;67.51;99064.66;4994317;28;19929;-83
2022/11/16 08:02:15;;;;;;;;;;;;;;;0.95;66.62;99069.94;5011169;28;20011;-82
2022/11/16 08:04:43;;;;;;;;;;;;;;;0.89;66.08;99059.19;5027465;28;19977;-83
2022/11/16 08:07:15;;;;;;;;;;;;;;;1.24;65.40;99063.00;5022107;28;20264;-82
2022/11/16 08:09:50;;;;;;;;;;;;;;;0.97;64.25;99059.16;5012677;28;19929;-82
2022/11/16 08:12:19;;;;;;;;;;;;;;;0.94;63.92;99056.84;5001252;28;20534;-82
2022/11/16 08:14:49;;;;;;;;;;;;;;;0.84;63.92;99057.94;5000955;28;20014;-83
2022/11/16 08:17:16;;;;;;;;;;;;;;;0.86;63.38;99049.75;5030628;28;19929;-83
2022/11/16 08:19:44;;;;;;;;;;;;;;;1.42;62.55;99052.84;5014288;28;20407;-82
2022/11/16 08:22:13;;;;;;;;;;;;;;;1.44;61.76;99053.50;5013729;28;19929;-82
2022/11/16 08:24:46;;;;;;;;;;;;;;;1.90;60.08;99053.22;5014177;28;20057;-83
2022/11/16 08:27:15;;;;;;;;;;;;;;;2.12;59.53;99055.91;5013990;28;19991;-85
2022/11/16 08:29:49;;;;;;;;;;;;;;;1.91;58.68;99054.88;5030773;28;19935;-82
2022/11/16 08:32:31;;;;;;;;;;;;;;;2.01;58.13;99056.41;5014903;28;19929;-83
2022/11/16 08:34:58;;;;;;;;;;;;;;;2.11;58.50;99063.06;5016898;28;20236;-84
2022/11/16 08:37:26;;;;;;;;;;;;;;;2.29;58.09;99067.16;5034652;28;19952;-84
2022/11/16 08:39:53;;;;;;;;;;;;;;;2.60;57.39;99061.50;4985293;28;19933;-84
2022/11/16 08:42:21;;;;;;;;;;;;;;;2.59;56.52;99060.69;5017199;28;19975;-85
2022/11/16 08:44:48;;;;;;;;;;;;;;;2.70;56.04;99061.19;5018980;28;20036;-85
2022/11/16 08:47:18;;;;;;;;;;;;;;;3.04;55.51;99055.09;5025116;28;19929;-84
2022/11/16 08:49:51;;;;;;;;;;;;;;;3.29;55.34;99063.44;5033865;28;19929;-85
2022/11/16 08:52:30;;;;;;;;;;;;;;;3.36;54.30;99063.50;5026112;28;20019;-84
2022/11/16 08:54:59;;;;;;;;;;;;;;;3.54;53.90;99062.97;5017408;28;19949;-90
2022/11/16 08:57:26;;;;;;;;;;;;;;;3.65;53.42;99067.75;5002035;28;19945;-89
2022/11/16 08:59:57;;;;;;;;;;;;;;;3.86;53.44;99062.28;4984903;28;19979;-84
2022/11/16 09:02:24;;;;;;;;;;;;;;;4.01;52.92;99062.16;5016090;28;19983;-85
2022/11/16 09:04:52;;;;;;;;;;;;;;;4.00;51.11;99059.66;5016171;28;20035;-85
2022/11/16 09:07:19;;;;;;;;;;;;;;;3.97;51.81;99065.41;5033213;28;19935;-83
2022/11/16 09:09:46;;;;;;;;;;;;;;;4.04;51.26;99063.59;5033405;28;19929;-85
2022/11/16 09:12:13;;;;;;;;;;;;;;;4.40;51.26;99060.59;5016406;28;19952;-85
2022/11/16 09:14:54;;;;;;;;;;;;;;;4.84;50.93;99069.06;5032070;28;19933;-84
2022/11/16 09:17:21;;;;;;;;;;;;;;;4.93;50.69;99067.81;5034590;28;19929;-89
2022/11/16 09:19:49;;;;;;;;;;;;;;;4.98;50.15;99062.69;5011755;28;19929;-84
2022/11/16 09:22:15;;;;;;;;;;;;;;;5.52;49.84;99069.59;5020721;28;19966;-90
2022/11/16 09:24:42;;;;;;;;;;;;;;;5.89;48.41;99069.06;5014341;28;19975;-84
2022/11/16 09:27:09;;;;;;;;;;;;;;;6.04;48.16;99062.41;5015106;28;19940;-84
2022/11/16 09:29:36;;;;;;;;;;;;;;;5.96;47.86;99065.34;5010680;28;19976;-85
2022/11/16 09:32:03;;;;;;;;;;;;;;;5.70;48.70;99063.56;5024059;28;20400;-85
2022/11/16 09:34:32;;;;;;;;;;;;;;;5.63;46.02;99060.91;5009589;28;19962;-86
2022/11/16 09:36:59;;;;;;;;;;;;;;;5.45;46.22;99060.75;5021309;28;20006;-83
2022/11/16 09:39:26;;;;;;;;;;;;;;;4.89;47.49;99066.59;5033143;28;20106;-83
2022/11/16 09:41:58;;;;;;;;;;;;;;;5.08;46.29;99060.41;5018928;28;19935;-86
2022/11/16 09:44:37;;;;;;;;;;;;;;;5.04;45.79;99066.38;5011384;28;20413;-82
2022/11/16 09:47:20;;;;;;;;;;;;;;;4.87;45.86;99057.97;5035904;28;19933;-85
2022/11/16 09:49:50;;;;;;;;;;;;;;;5.00;45.39;99065.97;5003737;28;20099;-84
2022/11/16 09:52:23;;;;;;;;;;;;;;;2.93;48.06;99069.75;5026802;28;19953;-83
2022/11/16 09:54:50;;;;;;;;;;;;;;;1.17;51.60;99070.91;5020470;28;20304;-83
2022/11/16 09:57:18;;;;;;;;;;;;;;;0.80;52.49;99077.88;5007220;28;19933;-82
2022/11/16 09:59:52;;;;;;;;;;;;;;;0.69;53.34;99070.34;4995174;28;19929;-84
2022/11/16 10:02:31;;;;;;;;;;;;;;;2.02;50.61;99060.72;5009590;28;19936;-86
2022/11/16 10:05:13;;;;;;;;;;;;;;;2.05;50.92;99069.16;5009962;28;20400;-85
2022/11/16 10:07:45;;;;;;;;;;;;;;;3.87;48.31;99066.63;5015146;28;19933;-90
2022/11/16 10:10:13;;;;;;;;;;;;;;;3.60;48.01;99059.53;4969259;28;19933;-84
2022/11/16 10:12:58;;;;;;;;;;;;;;;2.27;49.76;99063.84;5015521;28;19940;-84
2022/11/16 10:15:29;;;;;;;;;;;;;;;1.27;51.95;99065.31;5015187;28;19936;-84
2022/11/16 10:18:14;;;;;;;;;;;;;;;0.92;52.77;99061.53;5010778;28;20023;-86
2022/11/16 10:20:54;;;;;;;;;;;;;;;0.52;53.37;99063.53;5037166;28;19929;-86
2022/11/16 10:23:27;;;;;;;;;;;;;;;0.13;54.32;99062.66;4999269;28;19930;-86
2022/11/16 10:26:20;;;;;;;;;;;;;;;-0.31;54.89;99062.38;4997826;28;20319;-83
2022/11/16 10:29:03;;;;;;;;;;;;;;;-0.55;56.29;99066.81;5021011;28;19964;-85
2022/11/16 10:31:36;;;;;;;;;;;;;;;-0.60;56.47;99066.50;5020036;28;20404;-84
2022/11/16 10:34:04;;;;;;;;;;;;;;;-0.72;57.05;99068.69;5031330;28;20462;-85
2022/11/16 10:36:31;;;;;;;;;;;;;;;-0.82;57.49;99064.56;5025738;28;19936;-84
2022/11/16 10:38:58;;;;;;;;;;;;;;;-0.98;57.25;99068.91;5040454;28;20302;-85
2022/11/16 10:41:29;;;;;;;;;;;;;;;-1.01;57.54;99074.56;5049754;28;20479;-85
2022/11/16 10:43:57;;;;;;;;;;;;;;;-0.98;57.60;99062.78;5015824;28;19941;-85
2022/11/16 10:46:35;;;;;;;;;;;;;;;-1.01;58.17;99073.72;5000525;28;20180;-85
2022/11/16 10:49:07;;;;;;;;;;;;;;;-1.08;58.75;99067.44;5000847;28;19983;-84
2022/11/16 10:51:34;;;;;;;;;;;;;;;-1.28;59.20;99074.91;5000885;28;20390;-84
2022/11/16 10:54:03;;;;;;;;;;;;;;;-1.42;59.74;99073.75;5017091;28;20403;-84
2022/11/16 10:56:31;;;;;;;;;;;;;;;-1.40;60.39;99077.88;5008678;28;19976;-85
2022/11/16 10:58:59;;;;;;;;;;;;;;;-1.40;60.40;99080.53;5016616;28;19929;-84
2022/11/16 11:01:36;;;;;;;;;;;;;;;-1.44;60.34;99076.59;5000554;28;19929;-84
2022/11/16 11:04:12;;;;;;;;;;;;;;;-1.39;60.78;99073.44;5024600;28;19936;-85
2022/11/16 11:06:39;;;;;;;;;;;;;;;-1.30;60.45;99077.72;5011725;28;20379;-85
2022/11/16 11:09:29;;;;;;;;;;;;;;;-1.32;60.74;99069.97;5023166;28;19932;-84
2022/11/16 11:15:04;;;;;;;;;;;;;;;-1.65;61.31;99076.22;5008741;28;19928;-84
2022/11/16 11:17:32;;;;;;;;;;;;;;;-1.62;61.47;99079.41;5027907;28;19951;-83
2022/11/16 11:20:04;;;;;;;;;;;;;;;-1.58;61.65;99079.88;5031700;28;19936;-83
2022/11/16 11:22:32;;;;;;;;;;;;;;;-1.68;61.55;99090.63;5014055;28;20434;-83
2022/11/16 11:25:00;;;;;;;;;;;;;;;-1.70;61.81;99086.47;5014504;28;19932;-86
2022/11/16 11:27:32;;;;;;;;;;;;;;;-1.70;61.73;99091.78;5010401;28;19929;-83
2022/11/16 11:29:59;;;;;;;;;;;;;;;-1.79;61.93;99089.13;5016794;28;20387;-83
2022/11/16 11:32:30;;;;;;;;;;;;;;;-1.70;61.96;99091.78;5019874;28;19933;-83
2022/11/16 11:35:00;;;;;;;;;;;;;;;-1.72;61.80;99097.25;5006477;28;19936;-85
2022/11/16 11:37:35;;;;;;;;;;;;;;;-1.78;61.84;99096.06;5015291;28;20025;-84
2022/11/16 11:40:05;;;;;;;;;;;;;;;-1.77;61.60;99088.97;4998365;28;19929;-84
2022/11/16 11:42:33;;;;;;;;;;;;;;;-1.83;61.34;99100.19;5030396;28;19972;-83
2022/11/16 11:45:04;;;;;;;;;;;;;;;-1.85;61.47;99096.88;5021172;28;19937;-83
2022/11/16 11:47:31;;;;;;;;;;;;;;;-1.90;61.40;99107.97;5011513;28;20304;-83
2022/11/16 11:50:45;;;;;;;;;;;;;;;-2.01;61.49;99097.66;5011812;28;19971;-82
2022/11/16 11:53:38;;;;;;;;;;;;;;;-2.04;61.24;99098.81;5015000;28;19933;-83
2022/11/16 11:56:05;;;;;;;;;;;;;;;-1.98;61.56;99100.81;5019918;28;20307;-83
2022/11/16 11:58:36;;;;;;;;;;;;;;;-2.01;61.79;99101.13;4998378;28;19936;-82
2022/11/16 12:01:22;;;;;;;;;;;;;;;-2.03;61.42;99111.03;5017891;28;19959;-84
2022/11/16 12:04:10;;;;;;;;;;;;;;;-2.06;61.98;99105.25;5021148;28;19929;-83
2022/11/16 12:06:47;;;;;;;;;;;;;;;-2.08;61.63;99101.94;5013976;28;20020;-86
2022/11/16 12:09:21;;;;;;;;;;;;;;;-2.12;61.79;99097.97;4993167;28;19933;-87
2022/11/16 12:12:09;;;;;;;;;;;;;;;-2.11;62.29;99099.63;4991850;28;19929;-82
2022/11/16 12:14:59;;;;;;;;;;;;;;;-2.14;62.42;99095.50;5015904;28;20319;-83
2022/11/16 12:17:31;;;;;;;;;;;;;;;-2.28;62.70;99094.31;4993923;28;19936;-85
2022/11/16 12:20:02;;;;;;;;;;;;;;;-2.31;62.71;99094.59;5011129;28;19929;-84
2022/11/16 12:22:47;;;;;;;;;;;;;;;-2.38;62.75;99088.31;5010298;28;19929;-82
2022/11/16 12:25:20;;;;;;;;;;;;;;;-2.36;62.69;99088.13;5002632;28;20040;-83
2022/11/16 12:28:10;;;;;;;;;;;;;;;-2.43;62.38;99091.44;5011979;28;20400;-82
2022/11/16 12:30:55;;;;;;;;;;;;;;;-2.42;62.40;99087.78;5002132;28;19936;-82
2022/11/16 12:33:41;;;;;;;;;;;;;;;-2.44;62.27;99087.13;4999061;28;19940;-83
2022/11/16 12:36:14;;;;;;;;;;;;;;;-2.43;62.13;99087.94;4998647;28;20625;-82
2022/11/16 12:38:57;;;;;;;;;;;;;;;-2.48;62.37;99084.94;4990275;28;20347;-79
2022/11/16 12:41:25;;;;;;;;;;;;;;;-2.60;62.08;99079.13;5007532;28;19929;-82
2022/11/16 12:43:58;;;;;;;;;;;;;;;-2.67;62.36;99078.09;4990940;28;20016;-82
2022/11/16 12:46:42;;;;;;;;;;;;;;;-2.68;62.72;99079.91;5018678;28;19976;-82
2022/11/16 12:49:12;;;;;;;;;;;;;;;-2.74;62.51;99077.91;4990638;28;19936;-83
2022/11/16 12:51:51;;;;;;;;;;;;;;;-2.82;62.99;99072.56;5006965;28;19933;-82
2022/11/16 12:54:24;;;;;;;;;;;;;;;-2.90;63.07;99072.53;5013031;28;19956;-81
2022/11/16 12:56:51;;;;;;;;;;;;;;;-3.00;63.53;99067.34;5007767;28;19963;-82
2022/11/16 12:59:41;;;;;;;;;;;;;;;-3.14;63.55;99076.69;5016892;28;19940;-82
2022/11/16 13:02:11;;;;;;;;;;;;;;;-3.21;63.48;99086.22;5034763;28;19975;-84
2022/11/16 13:04:44;;;;;;;;;;;;;;;-3.32;63.60;99078.53;5011909;28;19980;-83
2022/11/16 13:07:19;;;;;;;;;;;;;;;-3.43;63.58;99078.78;4999259;28;19929;-85
2022/11/16 13:09:47;;;;;;;;;;;;;;;-3.47;63.86;99080.06;5001548;28;19945;-83
2022/11/16 13:12:15;;;;;;;;;;;;;;;-3.49;63.83;99078.41;5007196;28;19930;-85
2022/11/16 13:14:49;;;;;;;;;;;;;;;-3.53;64.11;99081.50;5016838;28;19976;-83
2022/11/16 13:17:19;;;;;;;;;;;;;;;-3.62;64.15;99077.13;5011800;28;19965;-83
2022/11/16 13:19:58;;;;;;;;;;;;;;;-3.70;64.26;99077.88;5007328;28;19969;-84
2022/11/16 13:22:26;;;;;;;;;;;;;;;-3.76;64.58;99086.41;4999845;28;20323;-83
2022/11/16 13:24:57;;;;;;;;;;;;;;;-3.82;64.57;99081.72;5000181;28;20486;-83
2022/11/16 13:27:30;;;;;;;;;;;;;;;-3.86;64.85;99090.94;5000317;28;19928;-82
2022/11/16 13:29:59;;;;;;;;;;;;;;;-3.97;64.94;99087.53;4994641;28;19966;-84
2022/11/16 13:32:31;;;;;;;;;;;;;;;-4.06;65.11;99091.06;5022033;28;20383;-84
2022/11/16 13:34:59;;;;;;;;;;;;;;;-4.13;65.49;99090.00;5015223;28;19957;-85
2022/11/16 13:37:38;;;;;;;;;;;;;;;-4.21;65.52;99089.91;4999581;28;19960;-83
2022/11/16 13:40:05;;;;;;;;;;;;;;;-4.27;65.79;99098.41;5002935;28;20378;-83
2022/11/16 13:42:33;;;;;;;;;;;;;;;-4.33;66.02;99091.91;5003386;28;20396;-82
2022/11/16 13:45:17;;;;;;;;;;;;;;;-4.41;66.65;99103.19;5005005;28;19929;-82
2022/11/16 13:47:51;;;;;;;;;;;;;;;-4.47;66.68;99100.31;5013488;28;19944;-82
2022/11/16 13:50:22;;;;;;;;;;;;;;;-4.55;66.97;99105.50;4994381;28;19995;-81